createdAt,value
2018-07-16T00:01:57.469Z,70.68
2018-07-16T00:04:23.007Z,70.14
2018-07-16T00:06:48.561Z,67.87
2018-07-16T00:09:14.096Z,70.32
2018-07-16T00:11:39.705Z,71.66
2018-07-16T00:14:05.244Z,69.70
2018-07-16T00:16:30.780Z,69.41
2018-07-16T00:18:56.324Z,69.88
2018-07-16T00:21:21.864Z,70.35
2018-07-16T00:23:47.423Z,70.37
2018-07-16T00:26:12.963Z,68.71
2018-07-16T00:28:38.505Z,70.77
2018-07-16T00:31:04.050Z,71.59
2018-07-16T00:33:29.587Z,72.74
2018-07-16T00:35:55.120Z,71.86
2018-07-16T00:38:20.661Z,72.86
2018-07-16T00:40:46.199Z,74.76
2018-07-16T00:43:11.765Z,72.73
2018-07-16T00:45:37.393Z,71.70
2018-07-16T00:48:02.933Z,70.17
2018-07-16T00:50:28.480Z,72.68
2018-07-16T00:52:54.029Z,72.30
2018-07-16T00:55:19.563Z,72.05
2018-07-16T00:57:45.096Z,72.79
2018-07-16T01:00:10.643Z,73.82
2018-07-16T01:02:36.192Z,73.08
2018-07-16T01:05:01.765Z,73.40
2018-07-16T01:07:27.308Z,71.58
2018-07-16T01:09:52.863Z,72.02
2018-07-16T01:12:18.401Z,73.84
2018-07-16T01:14:43.941Z,72.80
2018-07-16T01:17:09.487Z,71.47
2018-07-16T01:19:35.035Z,71.63
2018-07-16T01:22:00.571Z,72.76
2018-07-16T01:24:26.104Z,74.52
2018-07-16T01:26:51.644Z,75.50
2018-07-16T01:29:17.187Z,75.18
2018-07-16T01:31:42.725Z,74.19
2018-07-16T01:34:08.268Z,72.62
2018-07-16T01:36:33.816Z,74.40
2018-07-16T01:38:59.364Z,74.83
2018-07-16T01:41:24.903Z,76.04
2018-07-16T01:43:50.443Z,75.61
2018-07-16T01:46:15.984Z,76.71
2018-07-16T01:48:41.515Z,76.38
2018-07-16T01:51:07.054Z,77.53
2018-07-16T01:53:32.592Z,77.41
2018-07-16T01:55:58.144Z,76.72
2018-07-16T01:58:23.685Z,77.16
2018-07-16T02:00:49.248Z,78.42
2018-07-16T02:03:14.787Z,79.29
2018-07-16T02:05:40.328Z,79.15
2018-07-16T02:08:05.863Z,78.28
2018-07-16T02:10:31.403Z,79.29
2018-07-16T02:12:56.944Z,78.31
2018-07-16T02:15:22.487Z,77.47
2018-07-16T02:17:48.039Z,75.80
2018-07-16T02:20:13.580Z,78.18
2018-07-16T02:22:39.132Z,78.46
2018-07-16T02:25:04.695Z,78.96
2018-07-16T02:27:30.237Z,77.71
2018-07-16T02:29:55.781Z,78.03
2018-07-16T02:32:21.316Z,78.20
2018-07-16T02:34:46.845Z,78.51
2018-07-16T02:37:12.384Z,77.15
2018-07-16T02:39:37.919Z,78.30
2018-07-16T02:42:03.453Z,77.71
2018-07-16T02:44:29.012Z,80.50
2018-07-16T02:46:54.549Z,78.56
2018-07-16T02:49:20.098Z,76.97
2018-07-16T02:51:45.653Z,77.45
2018-07-16T02:54:11.196Z,79.02
2018-07-16T02:56:36.736Z,78.44
2018-07-16T02:59:02.273Z,78.81
2018-07-16T03:01:27.820Z,79.94
2018-07-16T03:03:53.366Z,80.50
2018-07-16T03:06:18.910Z,81.36
2018-07-16T03:08:44.449Z,81.77
2018-07-16T03:11:10.000Z,81.00
2018-07-16T03:13:35.560Z,80.33
2018-07-16T03:16:01.102Z,78.56
2018-07-16T03:18:26.669Z,80.19
2018-07-16T03:20:52.221Z,81.08
2018-07-16T03:23:17.762Z,79.47
2018-07-16T03:25:43.316Z,79.37
2018-07-16T03:28:08.869Z,80.72
2018-07-16T03:30:34.467Z,82.23
2018-07-16T03:32:59.969Z,81.98
2018-07-16T03:35:25.513Z,81.06
2018-07-16T03:37:51.068Z,81.32
2018-07-16T03:40:16.608Z,81.09
2018-07-16T03:42:42.145Z,82.10
2018-07-16T03:45:07.743Z,80.71
2018-07-16T03:47:33.291Z,79.70
2018-07-16T03:49:58.839Z,82.66
2018-07-16T03:52:24.385Z,81.68
2018-07-16T03:54:49.917Z,82.72
2018-07-16T03:57:15.459Z,82.50
2018-07-16T03:59:41.011Z,80.07
2018-07-16T04:02:06.544Z,81.49
2018-07-16T04:04:32.083Z,82.79
2018-07-16T04:06:57.631Z,81.38
2018-07-16T04:09:23.164Z,80.05
2018-07-16T04:11:48.699Z,79.64
2018-07-16T04:14:14.248Z,78.90
2018-07-16T04:16:39.792Z,79.57
2018-07-16T04:19:05.358Z,80.54
2018-07-16T04:21:30.897Z,80.55
2018-07-16T04:23:56.444Z,80.45
2018-07-16T04:26:21.992Z,80.90
2018-07-16T04:28:47.556Z,81.36
2018-07-16T04:31:13.118Z,78.13
2018-07-16T04:33:38.662Z,80.07
2018-07-16T04:36:04.258Z,79.25
2018-07-16T04:38:29.830Z,79.87
2018-07-16T04:40:55.394Z,79.35
2018-07-16T04:43:20.951Z,80.07
2018-07-16T04:45:46.521Z,80.11
2018-07-16T04:48:12.073Z,80.40
2018-07-16T04:50:37.616Z,79.70
2018-07-16T04:53:03.156Z,80.41
2018-07-16T04:55:28.712Z,79.94
2018-07-16T04:57:54.256Z,81.23
2018-07-16T05:00:19.799Z,81.75
2018-07-16T05:02:45.340Z,81.62
2018-07-16T05:05:10.918Z,80.70
2018-07-16T05:07:36.479Z,80.39
2018-07-16T05:10:02.019Z,80.82
2018-07-16T05:12:27.570Z,81.26
2018-07-16T05:14:53.119Z,80.83
2018-07-16T05:17:18.844Z,80.41
2018-07-16T05:19:44.526Z,80.98
2018-07-16T05:22:10.101Z,80.26
2018-07-16T05:24:35.645Z,81.37
2018-07-16T05:27:01.222Z,79.29
2018-07-16T05:29:26.797Z,81.93
2018-07-16T05:31:52.453Z,80.40
2018-07-16T05:34:17.924Z,78.49
2018-07-16T05:36:43.480Z,77.92
2018-07-16T05:39:09.066Z,77.74
2018-07-16T05:41:34.615Z,79.55
2018-07-16T05:44:00.171Z,80.67
2018-07-16T05:46:25.717Z,82.12
2018-07-16T05:48:51.277Z,80.15
2018-07-16T05:51:16.840Z,80.70
2018-07-16T05:53:42.392Z,81.16
2018-07-16T05:56:08.006Z,81.77
2018-07-16T05:58:34.595Z,81.08
2018-07-16T06:01:00.160Z,77.07
2018-07-16T06:03:26.745Z,79.89
2018-07-16T06:05:52.310Z,78.35
2018-07-16T06:08:17.873Z,76.85
2018-07-16T06:10:43.454Z,76.92
2018-07-16T06:13:09.049Z,74.73
2018-07-16T06:15:34.606Z,75.27
2018-07-16T06:18:00.164Z,72.94
2018-07-16T06:20:25.718Z,73.37
2018-07-16T06:22:51.277Z,72.19
2018-07-16T06:25:16.837Z,71.41
2018-07-16T06:27:42.400Z,72.94
2018-07-16T06:30:08.022Z,70.19
2018-07-16T06:32:33.667Z,69.85
2018-07-16T06:34:59.148Z,70.89
2018-07-16T06:37:24.704Z,68.07
2018-07-16T06:39:50.425Z,67.17
2018-07-16T06:42:16.117Z,67.67
2018-07-16T06:44:41.692Z,70.30
2018-07-16T06:47:07.261Z,68.40
2018-07-16T06:49:32.822Z,66.81
2018-07-16T06:51:58.383Z,67.68
2018-07-16T06:54:23.924Z,64.97
2018-07-16T06:56:49.486Z,68.73
2018-07-16T06:59:15.075Z,65.98
2018-07-16T07:01:40.607Z,64.83
2018-07-16T07:04:06.146Z,68.40
2018-07-16T07:06:31.712Z,64.32
2018-07-16T07:08:57.258Z,65.00
2018-07-16T07:11:22.811Z,62.57
2018-07-16T07:13:48.362Z,61.56
2018-07-16T07:16:13.905Z,61.72
2018-07-16T07:18:39.440Z,61.04
2018-07-16T07:21:04.995Z,62.38
2018-07-16T07:23:30.557Z,64.12
2018-07-16T07:25:56.112Z,60.26
2018-07-16T07:28:21.646Z,59.81
2018-07-16T07:30:47.188Z,59.10
2018-07-16T07:33:12.729Z,59.61
2018-07-16T07:35:38.298Z,58.09
2018-07-16T07:38:03.835Z,58.16
2018-07-16T07:40:29.398Z,58.25
2018-07-16T07:42:54.958Z,57.62
2018-07-16T07:45:20.493Z,58.07
2018-07-16T07:47:46.085Z,56.65
2018-07-16T07:50:11.616Z,55.88
2018-07-16T07:52:37.181Z,55.86
2018-07-16T07:55:03.011Z,55.70
2018-07-16T07:57:28.297Z,56.33
2018-07-16T07:59:53.852Z,55.22
2018-07-16T08:02:19.392Z,55.88
2018-07-16T08:04:44.955Z,54.89
2018-07-16T08:07:10.493Z,55.94
2018-07-16T08:09:36.027Z,54.65
2018-07-16T08:12:01.568Z,53.90
2018-07-16T08:14:27.128Z,52.57
2018-07-16T08:16:52.688Z,51.47
2018-07-16T08:19:18.239Z,51.31
2018-07-16T08:21:43.804Z,51.36
2018-07-16T08:24:09.353Z,52.63
2018-07-16T08:26:34.934Z,50.82
2018-07-16T08:29:00.514Z,51.64
2018-07-16T08:31:26.115Z,50.12
2018-07-16T08:33:51.682Z,49.13
2018-07-16T08:36:20.113Z,47.39
2018-07-16T08:38:45.673Z,48.16
2018-07-16T08:41:11.245Z,50.18
2018-07-16T08:43:36.840Z,48.53
2018-07-16T08:46:02.437Z,48.65
2018-07-16T08:48:27.967Z,46.97
2018-07-16T08:50:53.524Z,48.19
2018-07-16T08:53:19.064Z,46.31
2018-07-16T08:55:44.618Z,47.25
2018-07-16T08:58:10.161Z,46.46
2018-07-16T09:00:35.723Z,46.24
2018-07-16T09:03:01.262Z,45.58
2018-07-16T09:05:26.808Z,45.14
2018-07-16T09:07:52.347Z,44.82
2018-07-16T09:10:17.897Z,46.09
2018-07-16T09:12:43.440Z,45.33
2018-07-16T09:15:08.976Z,44.69
2018-07-16T09:17:34.522Z,44.56
2018-07-16T09:20:00.060Z,46.88
2018-07-16T09:22:25.612Z,45.29
2018-07-16T09:24:51.158Z,47.73
2018-07-16T09:27:16.700Z,43.69
2018-07-16T09:29:42.264Z,44.16
2018-07-16T09:32:07.834Z,44.28
2018-07-16T09:34:33.386Z,43.03
2018-07-16T09:36:58.939Z,42.87
2018-07-16T09:39:24.486Z,43.66
2018-07-16T09:41:50.028Z,43.43
2018-07-16T09:44:15.585Z,42.62
2018-07-16T09:46:41.137Z,40.48
2018-07-16T09:49:06.682Z,41.23
2018-07-16T09:51:32.220Z,41.19
2018-07-16T09:53:57.762Z,42.83
2018-07-16T09:56:23.358Z,40.90
2018-07-16T09:58:48.916Z,42.17
2018-07-16T10:01:14.473Z,41.84
2018-07-16T10:03:40.013Z,41.41
2018-07-16T10:06:05.565Z,40.24
2018-07-16T10:08:31.196Z,39.17
2018-07-16T10:10:56.687Z,40.43
2018-07-16T10:13:22.239Z,40.11
2018-07-16T10:15:47.778Z,37.65
2018-07-16T10:18:13.331Z,39.73
2018-07-16T10:20:39.002Z,40.37
2018-07-16T10:23:04.491Z,38.83
2018-07-16T10:25:30.039Z,38.84
2018-07-16T10:27:55.592Z,37.92
2018-07-16T10:30:21.151Z,36.39
2018-07-16T10:32:46.721Z,35.96
2018-07-16T10:35:12.257Z,36.50
2018-07-16T10:37:38.045Z,37.80
2018-07-16T10:40:03.597Z,37.25
2018-07-16T10:42:29.147Z,36.56
2018-07-16T10:44:54.705Z,35.21
2018-07-16T10:47:20.261Z,36.95
2018-07-16T10:49:45.902Z,35.66
2018-07-16T10:52:11.373Z,33.54
2018-07-16T10:54:36.934Z,36.42
2018-07-16T10:57:02.497Z,32.75
2018-07-16T10:59:28.076Z,33.21
2018-07-16T11:01:53.636Z,34.63
2018-07-16T11:04:19.181Z,35.04
2018-07-16T11:06:44.729Z,34.11
2018-07-16T11:09:10.288Z,33.82
2018-07-16T11:11:35.851Z,34.42
2018-07-16T11:14:01.402Z,33.13
2018-07-16T11:16:26.940Z,30.54
2018-07-16T11:18:52.496Z,32.49
2018-07-16T11:21:18.044Z,31.89
2018-07-16T11:23:43.604Z,33.08
2018-07-16T11:26:09.161Z,33.80
2018-07-16T11:28:34.700Z,34.59
2018-07-16T11:31:00.266Z,33.20
2018-07-16T11:33:25.835Z,34.04
2018-07-16T11:35:51.464Z,33.10
2018-07-16T11:38:16.937Z,32.07
2018-07-16T11:40:42.607Z,33.02
2018-07-16T11:43:08.155Z,32.54
2018-07-16T11:45:33.713Z,30.79
2018-07-16T11:47:59.265Z,31.33
2018-07-16T11:50:24.827Z,32.88
2018-07-16T11:52:50.378Z,30.34
2018-07-16T11:55:15.919Z,30.97
2018-07-16T11:57:41.452Z,28.65
2018-07-16T12:00:06.989Z,28.80
2018-07-16T12:02:32.525Z,29.93
2018-07-16T12:04:58.060Z,26.43
2018-07-16T12:07:23.600Z,25.83
2018-07-16T12:09:49.296Z,25.58
2018-07-16T12:12:14.900Z,24.12
2018-07-16T12:14:40.448Z,21.33
2018-07-16T12:17:05.999Z,20.86
2018-07-16T12:19:31.568Z,20.35
2018-07-16T12:21:57.131Z,19.50
2018-07-16T12:24:22.669Z,19.80
2018-07-16T12:26:48.235Z,17.67
2018-07-16T12:29:13.773Z,17.04
2018-07-16T12:31:39.314Z,15.49
2018-07-16T12:34:04.872Z,15.73
2018-07-16T12:36:32.709Z,13.88
2018-07-16T12:38:58.421Z,13.76
2018-07-16T12:41:24.009Z,13.31
2018-07-16T12:43:49.529Z,12.23
2018-07-16T12:46:15.074Z,12.64
2018-07-16T12:48:40.676Z,11.91
2018-07-16T12:51:06.188Z,11.17
2018-07-16T12:53:31.728Z,11.58
2018-07-16T12:55:57.264Z,10.71
2018-07-16T12:58:22.808Z,10.15
2018-07-16T13:00:48.361Z,10.38
2018-07-16T13:03:13.900Z,8.49
2018-07-16T13:05:39.477Z,8.88
2018-07-16T13:08:05.058Z,10.29
2018-07-16T13:10:30.615Z,10.15
2018-07-16T13:12:56.177Z,9.92
2018-07-16T13:15:21.793Z,9.83
2018-07-16T13:17:47.595Z,10.87
2018-07-16T13:20:13.147Z,9.86
2018-07-16T13:22:38.716Z,9.29
2018-07-16T13:25:04.277Z,9.06
2018-07-16T13:27:29.847Z,9.74
2018-07-16T13:29:55.498Z,9.24
2018-07-16T13:32:20.990Z,9.05
2018-07-16T13:34:46.589Z,8.71
2018-07-16T13:37:12.190Z,8.33
2018-07-16T13:39:37.721Z,8.05
2018-07-16T13:42:03.266Z,7.64
2018-07-16T13:44:28.820Z,7.14
2018-07-16T13:46:54.367Z,7.27
2018-07-16T13:49:19.931Z,5.96
2018-07-16T13:51:45.468Z,6.68
2018-07-16T13:54:11.010Z,5.95
2018-07-16T13:56:36.552Z,5.52
2018-07-16T13:59:02.104Z,5.61
2018-07-16T14:01:27.651Z,5.06
2018-07-16T14:03:53.203Z,6.19
2018-07-16T14:06:18.745Z,5.31
2018-07-16T14:08:44.293Z,5.26
2018-07-16T14:11:09.853Z,4.48
2018-07-16T14:13:35.592Z,5.26
2018-07-16T14:16:01.142Z,4.76
2018-07-16T14:18:26.700Z,4.74
2018-07-16T14:20:52.529Z,5.04
2018-07-16T14:23:18.076Z,3.52
2018-07-16T14:25:43.613Z,3.64
2018-07-16T14:28:09.160Z,4.14
2018-07-16T14:30:34.713Z,3.43
2018-07-16T14:33:00.248Z,3.74
2018-07-16T14:35:25.847Z,4.33
2018-07-16T14:37:51.385Z,4.40
2018-07-16T14:40:16.947Z,4.31
2018-07-16T14:42:42.549Z,3.99
2018-07-16T14:45:08.084Z,4.65
2018-07-16T14:47:33.683Z,4.37
2018-07-16T14:49:59.240Z,4.56
2018-07-16T14:52:24.795Z,4.10
2018-07-16T14:54:50.343Z,4.15
2018-07-16T14:57:15.900Z,4.01
2018-07-16T14:59:41.446Z,3.11
2018-07-16T15:02:07.440Z,3.43
2018-07-16T15:04:32.985Z,2.91
2018-07-16T15:06:58.544Z,3.84
2018-07-16T15:11:57.464Z,2.91
2018-07-16T15:14:23.021Z,4.18
2018-07-16T15:16:48.561Z,4.60
2018-07-16T15:19:14.132Z,3.64
2018-07-16T15:21:40.289Z,4.71
2018-07-16T15:24:05.667Z,4.83
2018-07-16T15:26:31.227Z,4.18
2018-07-16T15:28:56.855Z,4.35
2018-07-16T15:31:22.412Z,5.07
2018-07-16T15:33:47.958Z,5.20
2018-07-16T15:36:13.500Z,5.38
2018-07-16T15:38:39.075Z,5.71
2018-07-16T15:41:04.613Z,5.88
2018-07-16T15:43:30.162Z,5.82
2018-07-16T15:45:55.704Z,6.00
2018-07-16T15:48:21.349Z,6.80
2018-07-16T15:50:46.822Z,6.72
2018-07-16T15:53:12.421Z,7.36
2018-07-16T15:55:37.989Z,9.02
2018-07-16T15:58:03.589Z,9.79
2018-07-16T16:00:29.142Z,8.93
2018-07-16T16:02:54.871Z,9.64
2018-07-16T16:05:20.355Z,8.22
2018-07-16T16:07:48.092Z,7.38
2018-07-16T16:10:13.644Z,7.50
2018-07-16T16:12:39.817Z,7.83
2018-07-16T16:15:05.373Z,6.84
2018-07-16T16:17:31.419Z,6.56
2018-07-16T16:20:28.354Z,7.50
2018-07-16T16:22:53.937Z,7.37
2018-07-16T16:25:19.509Z,8.19
2018-07-16T16:27:45.099Z,9.62
2018-07-16T16:30:10.717Z,10.30
2018-07-16T16:32:36.413Z,10.48
2018-07-16T16:35:01.960Z,10.52
2018-07-16T16:37:27.546Z,11.85
2018-07-16T16:39:53.107Z,13.12
2018-07-16T16:42:18.708Z,12.45
2018-07-16T16:44:44.330Z,14.27
2018-07-16T16:47:09.964Z,14.33
2018-07-16T16:49:40.753Z,14.74
2018-07-16T16:52:06.351Z,14.63
2018-07-16T16:54:31.969Z,13.33
2018-07-16T16:56:57.561Z,13.63
2018-07-16T16:59:23.175Z,12.89
2018-07-16T17:01:48.816Z,12.67
2018-07-16T17:04:14.384Z,13.89
2018-07-16T17:06:40.019Z,13.11
2018-07-16T17:09:05.600Z,12.17
2018-07-16T17:11:31.172Z,12.54
2018-07-16T17:13:56.871Z,12.11
2018-07-16T17:16:22.779Z,14.01
2018-07-16T17:18:48.903Z,12.95
2018-07-16T17:21:14.481Z,13.35
2018-07-16T17:23:40.115Z,13.99
2018-07-16T17:26:05.945Z,12.96
2018-07-16T17:28:31.514Z,13.60
2018-07-16T17:30:57.056Z,12.81
2018-07-16T17:33:22.664Z,13.58
2018-07-16T17:35:48.384Z,14.85
2018-07-16T17:38:17.465Z,14.79
2018-07-16T17:40:43.120Z,13.27
2018-07-16T17:45:43.071Z,14.70
2018-07-16T17:48:08.812Z,15.57
2018-07-16T17:50:34.369Z,16.57
2018-07-16T17:53:00.069Z,16.72
2018-07-16T17:55:25.651Z,15.06
2018-07-16T18:00:10.826Z,18.03
2018-07-16T18:02:36.835Z,18.62
2018-07-16T18:07:02.737Z,19.81
2018-07-16T18:09:28.777Z,20.78
2018-07-16T18:11:54.801Z,20.79
2018-07-16T18:14:20.783Z,21.53
2018-07-16T18:16:46.775Z,20.79
2018-07-16T18:19:12.749Z,24.01
2018-07-16T18:21:38.709Z,24.48
2018-07-16T18:24:04.689Z,25.31
2018-07-16T18:26:30.669Z,24.91
2018-07-16T18:28:56.640Z,26.50
2018-07-16T18:31:22.611Z,26.29
2018-07-16T18:33:48.591Z,26.06
2018-07-16T18:36:14.557Z,25.88
2018-07-16T18:38:40.523Z,26.05
2018-07-16T18:41:06.596Z,27.66
2018-07-16T18:43:32.616Z,27.45
2018-07-16T18:45:58.584Z,28.19
2018-07-16T18:48:24.577Z,29.85
2018-07-16T18:50:50.538Z,28.58
2018-07-16T18:53:16.496Z,31.78
2018-07-16T18:55:42.458Z,31.58
2018-07-16T18:58:08.412Z,31.81
2018-07-16T19:00:34.472Z,31.33
2018-07-16T19:03:00.430Z,32.27
2018-07-16T19:05:26.425Z,33.85
2018-07-16T19:07:52.382Z,34.31
2018-07-16T19:10:18.350Z,35.38
2018-07-16T19:12:44.304Z,36.79
2018-07-16T19:15:10.291Z,36.97
2018-07-16T19:17:36.271Z,37.11
2018-07-16T19:20:02.678Z,36.79
2018-07-16T19:22:28.812Z,36.61
2018-07-16T19:24:55.093Z,38.71
2018-07-16T19:27:21.298Z,37.39
2018-07-16T19:29:47.266Z,38.59
2018-07-16T19:32:13.309Z,39.04
2018-07-16T19:34:39.272Z,39.45
2018-07-16T19:37:05.252Z,42.45
2018-07-16T19:39:33.981Z,40.86
2018-07-16T19:41:59.969Z,42.73
2018-07-16T19:44:25.937Z,43.92
2018-07-16T19:46:51.924Z,41.37
2018-07-16T19:49:18.034Z,40.25
2018-07-16T19:51:44.188Z,42.30
2018-07-16T19:54:11.181Z,42.78
2018-07-16T19:56:37.137Z,41.86
2018-07-16T19:59:03.119Z,42.87
2018-07-16T20:01:29.284Z,44.95
2018-07-16T20:03:55.337Z,43.96
2018-07-16T20:06:21.278Z,43.59
2018-07-16T20:08:47.239Z,43.24
2018-07-16T20:11:13.221Z,43.65
2018-07-16T20:13:39.278Z,44.41
2018-07-16T20:16:05.240Z,44.09
2018-07-16T20:18:31.199Z,45.63
2018-07-16T20:20:57.225Z,46.12
2018-07-16T20:23:23.193Z,44.11
2018-07-16T20:25:49.131Z,46.57
2018-07-16T20:28:15.114Z,44.68
2018-07-16T20:30:41.101Z,45.80
2018-07-16T20:33:07.058Z,45.28
2018-07-16T20:35:33.028Z,47.45
2018-07-16T20:37:58.989Z,45.68
2018-07-16T20:40:24.953Z,45.28
2018-07-16T20:42:50.916Z,48.03
2018-07-16T20:45:16.900Z,49.10
2018-07-16T20:47:42.862Z,49.56
2018-07-16T20:50:08.825Z,50.83
2018-07-16T20:52:34.796Z,48.13
2018-07-16T20:55:01.197Z,49.18
2018-07-16T20:57:27.160Z,51.11
2018-07-16T20:59:53.128Z,51.00
2018-07-16T21:02:19.107Z,50.78
2018-07-16T21:04:45.073Z,50.69
2018-07-16T21:07:11.044Z,48.20
2018-07-16T21:09:37.011Z,48.92
2018-07-16T21:12:02.974Z,48.61
2018-07-16T21:14:28.930Z,49.78
2018-07-16T21:16:54.886Z,50.94
2018-07-16T21:19:20.874Z,49.73
2018-07-16T21:21:46.830Z,50.39
2018-07-16T21:24:12.801Z,51.07
2018-07-16T21:26:38.821Z,51.00
2018-07-16T21:29:04.787Z,50.45
2018-07-16T21:31:30.749Z,49.49
2018-07-16T21:33:56.728Z,50.79
2018-07-16T21:36:22.686Z,52.64
2018-07-16T21:38:48.656Z,51.49
2018-07-16T21:41:14.623Z,52.22
2018-07-16T21:43:40.626Z,50.87
2018-07-16T21:46:06.593Z,52.21
2018-07-16T21:48:32.577Z,52.10
2018-07-16T21:50:58.555Z,54.28
2018-07-16T21:53:24.519Z,54.27
2018-07-16T21:55:50.603Z,53.10
2018-07-16T21:58:16.476Z,52.26
2018-07-16T22:00:42.543Z,54.63
2018-07-16T22:03:08.501Z,55.69
2018-07-16T22:05:34.455Z,54.41
2018-07-16T22:08:00.428Z,52.30
2018-07-16T22:10:26.393Z,55.21
2018-07-16T22:12:52.352Z,52.91
2018-07-16T22:15:18.321Z,52.64
2018-07-16T22:17:44.298Z,55.47
2018-07-16T22:20:10.305Z,55.98
2018-07-16T22:22:36.272Z,58.00
2018-07-16T22:25:02.283Z,57.36
2018-07-16T22:27:28.248Z,59.64
2018-07-16T22:29:54.204Z,57.03
2018-07-16T22:32:20.169Z,54.75
2018-07-16T22:34:46.130Z,55.77
2018-07-16T22:37:12.107Z,58.95
2018-07-16T22:39:38.071Z,58.98
2018-07-16T22:42:04.053Z,55.89
2018-07-16T22:44:30.031Z,56.27
2018-07-16T22:46:56.013Z,56.52
2018-07-16T22:49:21.977Z,57.42
2018-07-16T22:51:47.941Z,56.67
2018-07-16T22:54:13.909Z,59.01
2018-07-16T22:56:39.878Z,57.80
2018-07-16T22:59:05.838Z,58.36
2018-07-16T23:01:31.814Z,56.49
2018-07-16T23:03:57.768Z,58.54
2018-07-16T23:06:23.741Z,57.21
2018-07-16T23:08:49.701Z,60.28
2018-07-16T23:11:15.689Z,59.44
2018-07-16T23:13:41.647Z,60.75
2018-07-16T23:16:07.609Z,60.13
2018-07-16T23:18:33.576Z,58.10
2018-07-16T23:20:59.545Z,60.16
2018-07-16T23:23:25.500Z,61.81
2018-07-16T23:25:51.464Z,62.06
2018-07-16T23:28:17.437Z,61.98
2018-07-16T23:30:43.413Z,61.06
2018-07-16T23:33:09.371Z,60.22
2018-07-16T23:35:35.369Z,60.95
2018-07-16T23:38:01.338Z,62.67
2018-07-16T23:40:27.316Z,59.69
2018-07-16T23:42:53.290Z,62.13
2018-07-16T23:45:19.253Z,61.07
2018-07-16T23:47:45.206Z,59.76
2018-07-16T23:50:11.193Z,62.14
2018-07-16T23:52:37.148Z,62.01
2018-07-16T23:55:03.112Z,63.92
2018-07-16T23:57:29.071Z,61.72
2018-07-16T23:59:55.049Z,64.03
